Time;durP1;ratioP1;P1;durP2;ratioP2;P2;SDS_P1;SDS_P2;PMS_P1;PMS_P2;Temp;Humidity;BMP_temperature;BMP_pressure;BME280_temperature;BME280_humidity;BME280_pressure;Samples;Min_cycle;Max_cycle;Signal;HPM_P1;HPM_P2
2023/08/17 00:00:29;;;;;;;10.80;5.43;;;;;;;;;;5035115;28;20037;-69
2023/08/17 00:02:55;;;;;;;11.13;5.43;;;;;;;;;;5035247;28;20415;-69
2023/08/17 00:05:22;;;;;;;13.20;5.00;;;;;;;;;;5034340;28;20379;-68
2023/08/17 00:07:47;;;;;;;10.32;5.53;;;;;;;;;;5034000;28;20057;-68
2023/08/17 00:10:14;;;;;;;10.38;5.20;;;;;;;;;;5035167;28;20041;-68
2023/08/17 00:12:40;;;;;;;11.93;5.95;;;;;;;;;;5034037;28;20060;-68
2023/08/17 00:15:06;;;;;;;15.27;5.53;;;;;;;;;;5033980;28;20388;-69
2023/08/17 00:17:31;;;;;;;11.95;5.75;;;;;;;;;;5033872;28;20083;-68
2023/08/17 00:19:57;;;;;;;16.08;6.55;;;;;;;;;;5034613;28;20041;-69
2023/08/17 00:22:23;;;;;;;18.83;7.13;;;;;;;;;;5034623;28;20056;-68
2023/08/17 00:24:49;;;;;;;13.05;5.63;;;;;;;;;;5033722;28;20045;-68
2023/08/17 00:27:14;;;;;;;16.15;6.05;;;;;;;;;;5035280;28;20458;-69
2023/08/17 00:29:40;;;;;;;15.02;6.18;;;;;;;;;;5034904;28;20041;-69
2023/08/17 00:32:07;;;;;;;19.80;6.15;;;;;;;;;;5033386;28;20072;-69
2023/08/17 00:34:36;;;;;;;14.53;6.33;;;;;;;;;;5001411;28;20128;-69
2023/08/17 00:37:02;;;;;;;13.10;5.85;;;;;;;;;;5034064;28;20438;-69
2023/08/17 00:39:28;;;;;;;14.48;6.38;;;;;;;;;;5018341;28;20041;-69
2023/08/17 00:41:54;;;;;;;14.23;6.75;;;;;;;;;;5017522;28;20029;-68
2023/08/17 00:44:19;;;;;;;15.77;7.15;;;;;;;;;;5034334;28;20041;-68
2023/08/17 00:46:47;;;;;;;13.30;6.90;;;;;;;;;;5034456;28;20041;-73
2023/08/17 00:49:14;;;;;;;22.02;8.25;;;;;;;;;;5033768;28;20037;-69
2023/08/17 00:51:41;;;;;;;16.25;7.07;;;;;;;;;;5032974;28;20053;-69
2023/08/17 00:54:07;;;;;;;16.58;7.00;;;;;;;;;;5033417;28;20048;-69
2023/08/17 00:56:33;;;;;;;11.73;6.50;;;;;;;;;;5016697;28;20468;-68
2023/08/17 00:58:59;;;;;;;14.45;6.13;;;;;;;;;;5033105;28;20041;-69
2023/08/17 01:01:24;;;;;;;20.10;8.15;;;;;;;;;;5033277;28;20095;-68
2023/08/17 01:03:50;;;;;;;15.57;6.63;;;;;;;;;;5032943;28;20455;-68
2023/08/17 01:06:16;;;;;;;18.70;7.13;;;;;;;;;;5033280;28;20067;-69
2023/08/17 01:08:42;;;;;;;23.77;8.18;;;;;;;;;;5032959;28;20065;-69
2023/08/17 01:11:17;;;;;;;15.52;7.35;;;;;;;;;;5033201;28;20041;-69
2023/08/17 01:13:51;;;;;;;19.95;7.88;;;;;;;;;;5032824;28;20045;-68
2023/08/17 01:16:24;;;;;;;27.02;8.50;;;;;;;;;;5034352;28;20061;-69
2023/08/17 01:18:50;;;;;;;17.92;7.43;;;;;;;;;;5033971;28;20067;-68
2023/08/17 01:21:17;;;;;;;21.83;9.68;;;;;;;;;;5032998;28;20037;-68
2023/08/17 01:23:46;;;;;;;22.70;7.32;;;;;;;;;;5032704;28;20484;-69
2023/08/17 01:26:15;;;;;;;14.00;6.57;;;;;;;;;;5033593;28;20037;-69
2023/08/17 01:28:42;;;;;;;19.40;7.03;;;;;;;;;;5032266;28;20040;-69
2023/08/17 01:31:11;;;;;;;17.08;7.40;;;;;;;;;;5015978;28;20491;-69
2023/08/17 01:33:42;;;;;;;12.83;5.97;;;;;;;;;;5032454;28;20133;-68
2023/08/17 01:36:16;;;;;;;11.30;6.35;;;;;;;;;;5032491;28;20101;-69
2023/08/17 01:38:42;;;;;;;16.65;6.10;;;;;;;;;;5033087;28;20215;-68
2023/08/17 01:41:15;;;;;;;10.43;6.40;;;;;;;;;;5032335;28;20464;-68
2023/08/17 01:43:45;;;;;;;12.65;6.10;;;;;;;;;;5032715;28;20065;-69
2023/08/17 01:46:17;;;;;;;15.87;6.17;;;;;;;;;;5032892;28;20042;-69
2023/08/17 01:48:43;;;;;;;15.95;6.13;;;;;;;;;;5015720;28;20055;-69
2023/08/17 01:51:10;;;;;;;14.45;6.43;;;;;;;;;;5032088;28;20045;-69
2023/08/17 01:53:35;;;;;;;16.73;6.75;;;;;;;;;;5031948;28;20077;-69
2023/08/17 01:56:01;;;;;;;17.65;6.65;;;;;;;;;;5031943;28;20081;-69
2023/08/17 01:58:27;;;;;;;15.98;6.70;;;;;;;;;;5032037;28;20341;-68
2023/08/17 02:00:53;;;;;;;13.57;6.43;;;;;;;;;;5015674;28;20091;-68
2023/08/17 02:03:19;;;;;;;12.82;6.50;;;;;;;;;;5031487;28;20037;-68
2023/08/17 02:05:47;;;;;;;14.20;7.63;;;;;;;;;;5031949;28;20037;-69
2023/08/17 02:08:15;;;;;;;19.38;7.55;;;;;;;;;;5031849;28;20095;-69
2023/08/17 02:10:41;;;;;;;13.73;6.75;;;;;;;;;;5031976;28;20511;-69
2023/08/17 02:13:07;;;;;;;17.90;6.90;;;;;;;;;;5015635;28;20421;-69
2023/08/17 02:15:37;;;;;;;16.75;7.32;;;;;;;;;;4999358;28;20071;-68
2023/08/17 02:18:03;;;;;;;21.75;8.48;;;;;;;;;;5032879;28;20045;-69
2023/08/17 02:20:29;;;;;;;18.58;7.82;;;;;;;;;;5015371;28;20120;-68
2023/08/17 02:22:54;;;;;;;15.07;7.57;;;;;;;;;;5031949;28;20498;-68
2023/08/17 02:25:22;;;;;;;18.58;7.60;;;;;;;;;;5032915;28;20049;-68
2023/08/17 02:27:50;;;;;;;16.75;7.63;;;;;;;;;;5015772;28;20029;-69
2023/08/17 02:30:15;;;;;;;15.45;7.57;;;;;;;;;;4998863;28;20034;-68
2023/08/17 02:32:41;;;;;;;22.63;6.97;;;;;;;;;;5031492;28;20558;-69
2023/08/17 02:35:07;;;;;;;12.00;6.57;;;;;;;;;;5031623;28;20029;-70
2023/08/17 02:37:32;;;;;;;23.67;7.60;;;;;;;;;;5032231;28;20033;-69
2023/08/17 02:39:58;;;;;;;15.60;6.85;;;;;;;;;;5032759;28;20036;-68
2023/08/17 02:42:23;;;;;;;14.27;6.88;;;;;;;;;;5032153;28;20037;-68
2023/08/17 02:44:49;;;;;;;13.98;6.65;;;;;;;;;;5032676;28;20119;-69
2023/08/17 02:47:15;;;;;;;14.18;6.63;;;;;;;;;;5015074;28;20340;-69
2023/08/17 02:49:40;;;;;;;16.13;6.65;;;;;;;;;;5032044;28;20446;-68
2023/08/17 02:52:06;;;;;;;15.50;6.82;;;;;;;;;;5032535;28;20041;-69
2023/08/17 02:54:31;;;;;;;16.00;7.63;;;;;;;;;;5032379;28;20113;-68
2023/08/17 02:56:57;;;;;;;17.67;7.53;;;;;;;;;;5031069;28;20048;-68
2023/08/17 02:59:24;;;;;;;13.02;7.63;;;;;;;;;;5014668;28;20468;-69
2023/08/17 03:01:49;;;;;;;15.77;7.40;;;;;;;;;;4998409;28;20132;-69
2023/08/17 03:04:15;;;;;;;14.48;7.63;;;;;;;;;;5031128;28;20488;-69
2023/08/17 03:06:40;;;;;;;16.98;7.53;;;;;;;;;;5031783;28;20391;-69
2023/08/17 03:09:06;;;;;;;21.55;8.02;;;;;;;;;;5031508;28;20068;-70
2023/08/17 03:11:34;;;;;;;16.05;7.40;;;;;;;;;;5031950;28;20091;-69
2023/08/17 03:13:59;;;;;;;22.42;8.23;;;;;;;;;;5031501;28;20654;-69
2023/08/17 03:16:27;;;;;;;24.10;8.30;;;;;;;;;;5037611;28;20420;-68
2023/08/17 03:18:52;;;;;;;17.98;8.20;;;;;;;;;;5038859;28;20393;-69
2023/08/17 03:21:19;;;;;;;16.92;7.20;;;;;;;;;;5037515;28;20033;-69
2023/08/17 03:23:45;;;;;;;16.58;7.60;;;;;;;;;;5037490;28;20087;-68
2023/08/17 03:26:11;;;;;;;24.40;8.10;;;;;;;;;;5037385;28;20371;-69
2023/08/17 03:28:37;;;;;;;25.25;7.65;;;;;;;;;;5037678;28;20045;-68
2023/08/17 03:31:03;;;;;;;17.17;7.60;;;;;;;;;;5021648;28;20029;-68
2023/08/17 03:33:29;;;;;;;18.13;7.35;;;;;;;;;;5038102;28;20057;-69
2023/08/17 03:35:55;;;;;;;21.70;8.25;;;;;;;;;;5021869;28;20033;-69
2023/08/17 03:38:20;;;;;;;16.90;7.43;;;;;;;;;;5038599;28;20037;-72
2023/08/17 03:40:47;;;;;;;13.85;7.75;;;;;;;;;;5037425;28;20048;-69
2023/08/17 03:43:13;;;;;;;15.80;7.85;;;;;;;;;;5038057;28;20069;-69
2023/08/17 03:45:41;;;;;;;17.52;7.90;;;;;;;;;;5036993;28;20037;-69
2023/08/17 03:48:07;;;;;;;26.08;8.05;;;;;;;;;;5037111;28;20059;-69
2023/08/17 03:50:32;;;;;;;23.42;9.05;;;;;;;;;;5038249;28;20415;-69
2023/08/17 03:52:59;;;;;;;21.08;9.13;;;;;;;;;;5036979;28;20049;-69
2023/08/17 03:55:25;;;;;;;20.35;8.93;;;;;;;;;;5037382;28;20041;-69
2023/08/17 03:57:51;;;;;;;26.42;8.77;;;;;;;;;;5037184;28;20041;-69
2023/08/17 04:00:16;;;;;;;25.08;8.38;;;;;;;;;;5020524;28;20037;-69
2023/08/17 04:02:42;;;;;;;15.15;8.05;;;;;;;;;;5037816;28;20048;-69
2023/08/17 04:05:14;;;;;;;21.45;8.00;;;;;;;;;;5020316;28;20387;-69
2023/08/17 04:07:39;;;;;;;21.55;8.30;;;;;;;;;;5037924;28;20053;-69
2023/08/17 04:10:06;;;;;;;22.55;8.85;;;;;;;;;;5037046;28;20037;-69
2023/08/17 04:12:31;;;;;;;18.02;8.30;;;;;;;;;;5003826;28;20104;-69
2023/08/17 04:14:57;;;;;;;22.58;9.07;;;;;;;;;;5020805;28;20053;-69
2023/08/17 04:17:22;;;;;;;24.85;8.77;;;;;;;;;;5036739;28;20043;-69
2023/08/17 04:19:48;;;;;;;24.83;8.82;;;;;;;;;;5020123;28;20380;-69
2023/08/17 04:22:14;;;;;;;26.02;9.20;;;;;;;;;;5036787;28;20583;-69
2023/08/17 04:24:40;;;;;;;22.58;8.80;;;;;;;;;;5036842;28;20039;-68
2023/08/17 04:27:06;;;;;;;21.90;8.82;;;;;;;;;;5033709;28;20041;-68
2023/08/17 04:29:31;;;;;;;21.73;8.55;;;;;;;;;;5017063;28;20127;-69
2023/08/17 04:31:58;;;;;;;21.73;9.00;;;;;;;;;;5001113;28;20041;-69
2023/08/17 04:34:24;;;;;;;26.48;11.07;;;;;;;;;;5034653;28;20040;-69
2023/08/17 04:36:50;;;;;;;28.70;10.85;;;;;;;;;;5017548;28;20041;-69
2023/08/17 04:39:17;;;;;;;30.00;10.88;;;;;;;;;;5033682;28;20068;-69
2023/08/17 04:41:43;;;;;;;23.05;10.10;;;;;;;;;;5033475;28;20552;-70
2023/08/17 04:44:11;;;;;;;32.05;11.15;;;;;;;;;;5017682;28;20037;-68
2023/08/17 04:46:37;;;;;;;26.45;9.85;;;;;;;;;;5016912;28;20384;-72
2023/08/17 04:49:04;;;;;;;33.17;10.02;;;;;;;;;;5034331;28;20033;-68
2023/08/17 04:51:30;;;;;;;20.20;9.90;;;;;;;;;;5016984;28;20067;-69
2023/08/17 04:53:56;;;;;;;27.98;9.55;;;;;;;;;;5016998;28;20048;-69
2023/08/17 04:56:22;;;;;;;21.05;8.85;;;;;;;;;;5049928;28;20446;-69
2023/08/17 04:58:48;;;;;;;21.83;8.05;;;;;;;;;;5033452;28;20068;-69
2023/08/17 05:01:18;;;;;;;30.35;8.90;;;;;;;;;;5034532;28;20045;-69
2023/08/17 05:03:44;;;;;;;18.98;7.85;;;;;;;;;;5001308;28;20038;-69
2023/08/17 05:06:09;;;;;;;22.85;7.25;;;;;;;;;;5034243;28;20063;-69
2023/08/17 05:08:35;;;;;;;24.33;7.70;;;;;;;;;;5016215;28;20057;-68
2023/08/17 05:11:01;;;;;;;23.02;8.32;;;;;;;;;;5016752;28;20037;-69
2023/08/17 05:13:27;;;;;;;17.58;7.32;;;;;;;;;;5032966;28;20041;-69
2023/08/17 05:15:56;;;;;;;21.73;7.20;;;;;;;;;;5032624;28;20041;-69
2023/08/17 05:18:22;;;;;;;24.30;7.40;;;;;;;;;;5032416;28;20048;-69
2023/08/17 05:20:47;;;;;;;19.38;7.15;;;;;;;;;;5032670;28;20122;-69
2023/08/17 05:23:13;;;;;;;20.30;6.07;;;;;;;;;;5016272;28;20376;-70
2023/08/17 05:25:39;;;;;;;9.50;4.35;;;;;;;;;;5032651;28;20372;-69
2023/08/17 05:28:06;;;;;;;13.77;4.00;;;;;;;;;;5032552;28;20528;-69
2023/08/17 05:30:32;;;;;;;8.80;3.95;;;;;;;;;;5032652;28;20129;-69
2023/08/17 05:32:58;;;;;;;11.80;4.28;;;;;;;;;;5016222;28;20137;-69
2023/08/17 05:35:23;;;;;;;12.70;4.47;;;;;;;;;;5032583;28;20130;-69
2023/08/17 05:37:50;;;;;;;12.75;4.47;;;;;;;;;;5032277;28;20044;-69
2023/08/17 05:40:15;;;;;;;14.95;4.85;;;;;;;;;;5033341;28;20444;-69
2023/08/17 05:42:41;;;;;;;12.75;5.68;;;;;;;;;;5033101;28;20071;-70
2023/08/17 05:45:07;;;;;;;7.13;3.90;;;;;;;;;;5033276;28;20106;-69
2023/08/17 05:47:33;;;;;;;9.52;3.88;;;;;;;;;;5016375;28;20025;-68
2023/08/17 05:49:59;;;;;;;16.05;4.32;;;;;;;;;;5032468;28;20099;-70
2023/08/17 05:52:25;;;;;;;11.48;4.55;;;;;;;;;;5032418;28;20044;-69
2023/08/17 05:54:50;;;;;;;9.68;3.88;;;;;;;;;;5032227;28;20075;-69
2023/08/17 05:57:16;;;;;;;10.93;4.32;;;;;;;;;;5032391;28;20069;-69
2023/08/17 05:59:41;;;;;;;17.27;4.60;;;;;;;;;;5033080;28;20046;-69
2023/08/17 06:02:07;;;;;;;13.88;4.22;;;;;;;;;;5032033;28;20367;-70
2023/08/17 06:04:33;;;;;;;11.48;4.35;;;;;;;;;;5033243;28;20041;-69
2023/08/17 06:07:00;;;;;;;11.48;3.70;;;;;;;;;;5032899;28;20088;-69
2023/08/17 06:09:25;;;;;;;12.88;4.07;;;;;;;;;;5033435;28;20057;-69
2023/08/17 06:11:51;;;;;;;13.80;4.03;;;;;;;;;;5032296;28;20033;-69
2023/08/17 06:14:17;;;;;;;12.80;4.25;;;;;;;;;;5032748;28;20045;-69
2023/08/17 06:16:43;;;;;;;13.40;5.45;;;;;;;;;;5032787;28;20357;-69
2023/08/17 06:19:08;;;;;;;12.57;4.53;;;;;;;;;;5015022;28;20045;-69
2023/08/17 06:21:34;;;;;;;15.00;4.45;;;;;;;;;;4999218;28;20037;-69
2023/08/17 06:24:00;;;;;;;10.48;3.92;;;;;;;;;;5031487;28;20041;-69
2023/08/17 06:26:26;;;;;;;9.75;3.30;;;;;;;;;;5032455;28;20484;-69
2023/08/17 06:28:51;;;;;;;8.38;3.42;;;;;;;;;;5031511;28;20128;-69
2023/08/17 06:31:17;;;;;;;9.55;3.05;;;;;;;;;;5031337;28;20183;-69
2023/08/17 06:33:42;;;;;;;9.80;3.30;;;;;;;;;;5015081;28;20060;-69
2023/08/17 06:36:08;;;;;;;10.13;3.47;;;;;;;;;;5032461;28;20128;-69
2023/08/17 06:38:34;;;;;;;9.25;3.30;;;;;;;;;;5032687;28;20033;-69
2023/08/17 06:41:00;;;;;;;10.00;3.60;;;;;;;;;;5032453;28;20047;-69
2023/08/17 06:43:25;;;;;;;9.75;3.42;;;;;;;;;;5031182;28;20033;-69
2023/08/17 06:45:51;;;;;;;9.35;3.22;;;;;;;;;;5032732;28;20040;-69
2023/08/17 06:48:16;;;;;;;7.20;3.08;;;;;;;;;;5032236;28;20041;-69
2023/08/17 06:50:42;;;;;;;5.75;3.00;;;;;;;;;;5031003;28;20033;-69
2023/08/17 06:53:07;;;;;;;6.93;2.90;;;;;;;;;;5031181;28;20061;-69
2023/08/17 06:55:33;;;;;;;10.15;2.53;;;;;;;;;;5031237;28;20371;-69
2023/08/17 06:57:59;;;;;;;11.32;2.90;;;;;;;;;;5031317;28;20116;-69
2023/08/17 07:00:24;;;;;;;5.57;2.70;;;;;;;;;;5031872;28;20357;-70
2023/08/17 07:02:50;;;;;;;5.18;2.60;;;;;;;;;;5030950;28;20041;-69
2023/08/17 07:42:52;;;;;;;8.07;2.45;;;;;;;;;;5031619;28;20037;-71
2023/08/17 07:45:18;;;;;;;7.65;2.33;;;;;;;;;;5031696;28;20199;-71
2023/08/17 07:47:43;;;;;;;6.88;2.53;;;;;;;;;;5031348;28;20037;-71
2023/08/17 07:50:09;;;;;;;11.27;2.50;;;;;;;;;;5031776;28;20034;-71
2023/08/17 07:52:34;;;;;;;8.63;2.50;;;;;;;;;;5031210;28;20049;-71
2023/08/17 07:55:00;;;;;;;9.45;2.42;;;;;;;;;;5030409;28;20033;-71
2023/08/17 07:57:26;;;;;;;7.82;2.35;;;;;;;;;;5030441;28;20143;-71
2023/08/17 07:59:53;;;;;;;5.45;2.20;;;;;;;;;;5031462;28;20203;-71
2023/08/17 08:02:19;;;;;;;4.47;1.95;;;;;;;;;;5034094;28;20038;-71
2023/08/17 08:04:45;;;;;;;5.05;1.98;;;;;;;;;;5035406;28;20034;-71
2023/08/17 08:07:11;;;;;;;8.82;2.47;;;;;;;;;;5035443;28;20511;-71
2023/08/17 08:09:36;;;;;;;8.90;2.40;;;;;;;;;;5034250;28;20132;-71
2023/08/17 08:12:02;;;;;;;6.07;2.15;;;;;;;;;;5034036;28;20476;-70
2023/08/17 08:14:29;;;;;;;8.40;2.35;;;;;;;;;;5034737;28;20428;-71
2023/08/17 08:16:54;;;;;;;11.90;2.33;;;;;;;;;;5035041;28;20064;-71
2023/08/17 08:19:20;;;;;;;7.00;2.30;;;;;;;;;;5017653;28;20083;-71
2023/08/17 08:21:45;;;;;;;8.57;1.92;;;;;;;;;;5034947;28;20179;-70
2023/08/17 08:24:11;;;;;;;6.97;2.00;;;;;;;;;;5017331;28;20096;-72
2023/08/17 08:26:36;;;;;;;4.28;1.73;;;;;;;;;;5034810;28;20033;-72
2023/08/17 08:29:02;;;;;;;4.38;1.55;;;;;;;;;;5034595;28;20056;-71
2023/08/17 08:31:28;;;;;;;6.55;1.90;;;;;;;;;;5034652;28;20043;-71
2023/08/17 08:33:54;;;;;;;7.88;1.70;;;;;;;;;;5034485;28;20542;-71
2023/08/17 08:36:19;;;;;;;4.65;1.70;;;;;;;;;;5034186;28;20040;-71
2023/08/17 08:38:45;;;;;;;6.75;1.70;;;;;;;;;;5034433;28;20085;-71
2023/08/17 08:41:11;;;;;;;10.73;1.70;;;;;;;;;;5034101;28;20061;-71
2023/08/17 08:43:37;;;;;;;8.30;1.63;;;;;;;;;;5034604;28;20080;-72
2023/08/17 08:46:03;;;;;;;3.92;1.50;;;;;;;;;;5034290;28;20088;-71
2023/08/17 08:48:29;;;;;;;9.13;1.48;;;;;;;;;;5016991;28;20037;-71
2023/08/17 08:50:55;;;;;;;6.45;1.58;;;;;;;;;;5034316;28;20041;-71
2023/08/17 08:53:27;;;;;;;3.75;1.70;;;;;;;;;;5034172;28;20022;-71
2023/08/17 08:55:58;;;;;;;6.60;1.42;;;;;;;;;;5016771;28;20042;-71
2023/08/17 08:58:29;;;;;;;6.45;1.75;;;;;;;;;;5016528;28;20025;-72
2023/08/17 09:00:54;;;;;;;6.93;1.70;;;;;;;;;;5033007;28;20040;-71
2023/08/17 09:03:21;;;;;;;9.25;1.80;;;;;;;;;;5033898;28;20049;-71
2023/08/17 09:05:47;;;;;;;4.72;1.50;;;;;;;;;;5033837;28;20029;-71
2023/08/17 09:08:13;;;;;;;3.17;1.40;;;;;;;;;;5034079;28;20045;-71
2023/08/17 09:10:39;;;;;;;7.25;1.60;;;;;;;;;;5016592;28;20041;-71
2023/08/17 09:13:05;;;;;;;5.00;1.48;;;;;;;;;;5033638;28;20041;-71
2023/08/17 09:15:30;;;;;;;3.13;1.50;;;;;;;;;;5033854;28;20496;-71
2023/08/17 09:17:56;;;;;;;4.15;1.48;;;;;;;;;;5033944;28;20079;-72
2023/08/17 09:20:38;;;;;;;8.77;1.90;;;;;;;;;;5033009;28;20448;-72
2023/08/17 09:23:04;;;;;;;4.65;1.42;;;;;;;;;;5033725;28;20103;-71
2023/08/17 09:25:31;;;;;;;7.53;1.90;;;;;;;;;;5033896;28;20041;-71
2023/08/17 09:27:57;;;;;;;5.97;1.60;;;;;;;;;;5016368;28;20096;-71
2023/08/17 09:30:23;;;;;;;5.63;1.67;;;;;;;;;;5032396;28;20115;-71
2023/08/17 09:32:49;;;;;;;5.72;1.60;;;;;;;;;;5033613;28;20037;-72
2023/08/17 09:35:15;;;;;;;8.15;1.38;;;;;;;;;;5016275;28;20044;-72
2023/08/17 09:37:41;;;;;;;5.28;1.70;;;;;;;;;;5032506;28;20345;-71
2023/08/17 09:40:08;;;;;;;10.13;1.70;;;;;;;;;;5015799;28;20047;-72
2023/08/17 09:42:35;;;;;;;10.37;2.13;;;;;;;;;;5032121;28;20136;-72
2023/08/17 09:45:01;;;;;;;7.10;1.70;;;;;;;;;;5032338;28;20292;-71
2023/08/17 09:47:26;;;;;;;6.68;1.60;;;;;;;;;;5032266;28;20041;-71
2023/08/17 09:49:52;;;;;;;5.05;1.50;;;;;;;;;;5032184;28;20464;-72
2023/08/17 09:52:19;;;;;;;8.88;1.85;;;;;;;;;;5033055;28;20037;-71
2023/08/17 09:54:46;;;;;;;3.55;1.70;;;;;;;;;;5015798;28;20036;-71
2023/08/17 09:57:12;;;;;;;4.50;1.50;;;;;;;;;;5015613;28;20052;-72
2023/08/17 09:59:37;;;;;;;9.65;1.77;;;;;;;;;;5032099;28;20388;-71
2023/08/17 10:02:03;;;;;;;10.63;2.03;;;;;;;;;;5031923;28;20037;-71
2023/08/17 10:04:30;;;;;;;8.07;1.73;;;;;;;;;;5032063;28;20060;-71
2023/08/17 10:07:03;;;;;;;3.05;1.48;;;;;;;;;;5032717;28;20110;-71
2023/08/17 10:09:31;;;;;;;2.28;1.30;;;;;;;;;;5031721;28;20037;-72
2023/08/17 10:11:58;;;;;;;5.97;1.80;;;;;;;;;;5015497;28;20037;-70
2023/08/17 10:14:29;;;;;;;9.80;1.90;;;;;;;;;;5032705;28;20478;-71
2023/08/17 10:16:59;;;;;;;7.35;1.73;;;;;;;;;;5032657;28;20062;-71
2023/08/17 10:19:54;;;;;;;9.40;1.95;;;;;;;;;;5031642;28;20037;-71
2023/08/17 10:22:23;;;;;;;3.90;1.40;;;;;;;;;;5030599;28;20041;-71
2023/08/17 10:24:49;;;;;;;4.38;1.40;;;;;;;;;;5031758;28;20034;-70
2023/08/17 10:27:16;;;;;;;6.50;1.70;;;;;;;;;;5032692;28;20048;-71
2023/08/17 10:29:43;;;;;;;5.43;1.80;;;;;;;;;;5032418;28;20041;-71
2023/08/17 10:32:08;;;;;;;7.78;1.80;;;;;;;;;;5031502;28;20133;-71
2023/08/17 10:34:35;;;;;;;6.47;1.50;;;;;;;;;;5032192;28;20069;-71
2023/08/17 10:37:01;;;;;;;4.05;1.42;;;;;;;;;;5015005;28;20055;-72
2023/08/17 10:39:27;;;;;;;6.95;1.35;;;;;;;;;;5032216;28;20041;-71
2023/08/17 10:41:54;;;;;;;5.93;1.55;;;;;;;;;;5032217;28;20460;-71
2023/08/17 10:44:39;;;;;;;8.90;1.65;;;;;;;;;;5032151;28;20041;-71
2023/08/17 10:47:22;;;;;;;7.05;1.60;;;;;;;;;;5014926;28;20038;-71
2023/08/17 10:50:19;;;;;;;9.75;1.60;;;;;;;;;;5032232;28;20353;-71
2023/08/17 10:52:47;;;;;;;6.53;1.75;;;;;;;;;;5032246;28;20145;-71
2023/08/17 10:55:13;;;;;;;8.82;1.77;;;;;;;;;;5031199;28;20190;-72
2023/08/17 10:57:39;;;;;;;9.60;1.60;;;;;;;;;;5032028;28;20041;-71
2023/08/17 11:00:20;;;;;;;7.65;1.70;;;;;;;;;;5031888;28;20056;-71
2023/08/17 11:02:51;;;;;;;4.75;1.58;;;;;;;;;;5030914;28;20053;-72
2023/08/17 11:05:33;;;;;;;7.13;1.70;;;;;;;;;;5032172;28;20033;-71
2023/08/17 11:07:59;;;;;;;5.55;1.60;;;;;;;;;;5030785;28;20043;-71
2023/08/17 11:10:25;;;;;;;4.53;1.58;;;;;;;;;;5032088;28;20434;-71
2023/08/17 11:12:52;;;;;;;8.25;1.65;;;;;;;;;;5032316;28;20045;-71
2023/08/17 11:15:18;;;;;;;4.55;1.50;;;;;;;;;;5032170;28;20530;-71
2023/08/17 11:17:44;;;;;;;7.55;1.42;;;;;;;;;;5031345;28;20037;-71
2023/08/17 11:20:10;;;;;;;6.20;1.63;;;;;;;;;;5016512;28;20143;-71
2023/08/17 11:22:36;;;;;;;5.75;1.80;;;;;;;;;;5034556;28;20075;-71
2023/08/17 11:25:01;;;;;;;4.60;1.50;;;;;;;;;;5034827;28;20156;-70
2023/08/17 11:27:30;;;;;;;7.90;1.73;;;;;;;;;;5017103;28;20037;-70
2023/08/17 11:29:56;;;;;;;9.90;1.60;;;;;;;;;;5031510;28;20033;-70
2023/08/17 11:32:22;;;;;;;6.95;2.10;;;;;;;;;;5032005;28;20049;-71
2023/08/17 11:34:47;;;;;;;6.70;1.90;;;;;;;;;;5032125;28;20033;-71
2023/08/17 11:37:14;;;;;;;6.85;2.15;;;;;;;;;;5001874;28;20107;-70
2023/08/17 11:39:40;;;;;;;8.60;1.95;;;;;;;;;;5034514;28;20142;-70
2023/08/17 11:42:06;;;;;;;8.38;1.95;;;;;;;;;;5034452;28;20069;-70
2023/08/17 11:44:32;;;;;;;5.53;2.25;;;;;;;;;;5034445;28;20072;-69
2023/08/17 11:46:57;;;;;;;7.45;2.00;;;;;;;;;;5035517;28;20084;-71
2023/08/17 11:49:24;;;;;;;4.85;1.95;;;;;;;;;;5035599;28;20029;-70
2023/08/17 11:51:51;;;;;;;7.05;2.40;;;;;;;;;;5035782;28;20048;-70
2023/08/17 11:54:16;;;;;;;6.35;2.40;;;;;;;;;;5034407;28;20040;-70
2023/08/17 11:56:42;;;;;;;7.45;2.30;;;;;;;;;;5035334;28;20367;-70
2023/08/17 11:59:11;;;;;;;6.28;2.20;;;;;;;;;;5034167;28;20068;-70
2023/08/17 12:01:36;;;;;;;6.72;2.10;;;;;;;;;;5034408;28;20045;-70
2023/08/17 12:04:04;;;;;;;7.32;2.50;;;;;;;;;;5035108;28;20049;-70
2023/08/17 12:06:30;;;;;;;5.82;2.20;;;;;;;;;;5035180;28;20049;-69
2023/08/17 12:08:55;;;;;;;3.75;2.20;;;;;;;;;;5034352;28;20033;-69
2023/08/17 12:11:24;;;;;;;9.65;2.28;;;;;;;;;;5035181;28;20048;-70
2023/08/17 12:13:53;;;;;;;6.28;2.50;;;;;;;;;;5035663;28;20213;-70
2023/08/17 12:16:19;;;;;;;4.63;2.20;;;;;;;;;;5034211;28;20068;-70
2023/08/17 12:18:47;;;;;;;6.97;2.60;;;;;;;;;;5034878;28;20329;-70
2023/08/17 12:21:13;;;;;;;10.52;2.40;;;;;;;;;;5034177;28;20056;-70
2023/08/17 12:23:38;;;;;;;4.93;1.95;;;;;;;;;;5033952;28;20042;-69
2023/08/17 12:26:05;;;;;;;5.45;2.28;;;;;;;;;;5034752;28;20520;-69
2023/08/17 12:28:30;;;;;;;8.85;2.65;;;;;;;;;;5034708;28;20478;-69
2023/08/17 12:31:00;;;;;;;7.45;2.35;;;;;;;;;;5035244;28;20037;-69
2023/08/17 12:33:25;;;;;;;4.80;2.22;;;;;;;;;;5035439;28;20045;-69
2023/08/17 12:35:51;;;;;;;8.40;2.35;;;;;;;;;;5034006;28;20424;-69
2023/08/17 12:38:17;;;;;;;6.40;2.22;;;;;;;;;;5017396;28;20038;-69
2023/08/17 12:40:43;;;;;;;4.60;2.20;;;;;;;;;;5033661;28;20484;-69
2023/08/17 12:43:08;;;;;;;5.72;2.30;;;;;;;;;;5017315;28;20057;-69
2023/08/17 12:45:34;;;;;;;6.72;2.70;;;;;;;;;;5017258;28;20107;-69
2023/08/17 12:48:00;;;;;;;5.25;2.33;;;;;;;;;;5033940;28;20357;-69
2023/08/17 12:50:25;;;;;;;5.85;2.13;;;;;;;;;;5034673;28;20449;-69
2023/08/17 12:52:51;;;;;;;7.03;2.38;;;;;;;;;;5033644;28;20128;-69
2023/08/17 12:55:17;;;;;;;7.60;2.15;;;;;;;;;;5033359;28;20557;-69
2023/08/17 12:57:42;;;;;;;4.72;2.20;;;;;;;;;;5034363;28;20459;-69
2023/08/17 13:00:08;;;;;;;7.75;2.58;;;;;;;;;;5034262;28;20049;-69
2023/08/17 13:02:34;;;;;;;12.02;2.50;;;;;;;;;;5034029;28;20084;-69
2023/08/17 13:05:00;;;;;;;5.85;2.30;;;;;;;;;;5034122;28;20450;-69
2023/08/17 13:07:25;;;;;;;4.07;2.22;;;;;;;;;;5033428;28;20030;-69
2023/08/17 13:09:51;;;;;;;6.05;2.00;;;;;;;;;;5034011;28;20038;-69
2023/08/17 13:12:17;;;;;;;5.85;2.20;;;;;;;;;;5033966;28;20029;-69
2023/08/17 13:14:42;;;;;;;6.90;2.33;;;;;;;;;;5034038;28;20048;-69
2023/08/17 13:17:08;;;;;;;5.38;2.10;;;;;;;;;;5033959;28;20041;-69
2023/08/17 13:19:34;;;;;;;9.13;2.65;;;;;;;;;;5000459;28;20356;-69
2023/08/17 13:22:00;;;;;;;7.15;2.70;;;;;;;;;;5033379;28;20063;-69
2023/08/17 13:24:25;;;;;;;8.77;2.90;;;;;;;;;;5066035;28;20057;-69
2023/08/17 13:26:52;;;;;;;8.98;2.50;;;;;;;;;;5034746;28;20053;-70
2023/08/17 13:29:19;;;;;;;10.23;2.50;;;;;;;;;;5034733;28;20345;-69
2023/08/17 13:31:46;;;;;;;9.63;2.30;;;;;;;;;;5033822;28;20444;-69
2023/08/17 13:34:12;;;;;;;8.07;2.10;;;;;;;;;;5033553;28;20030;-70
2023/08/17 13:36:37;;;;;;;6.53;2.40;;;;;;;;;;5033769;28;20037;-69
2023/08/17 13:39:03;;;;;;;10.85;2.38;;;;;;;;;;5033499;28;20033;-69
2023/08/17 13:41:29;;;;;;;6.35;2.53;;;;;;;;;;4999792;28;20161;-69
2023/08/17 13:43:57;;;;;;;8.70;2.33;;;;;;;;;;5032379;28;20057;-69
2023/08/17 13:46:22;;;;;;;10.30;3.13;;;;;;;;;;5033489;28;20460;-69
2023/08/17 13:48:48;;;;;;;12.10;2.78;;;;;;;;;;5032313;28;20037;-69
2023/08/17 13:51:13;;;;;;;10.38;2.38;;;;;;;;;;5033336;28;20392;-70
2023/08/17 13:53:39;;;;;;;10.45;2.28;;;;;;;;;;5032388;28;20029;-69
2023/08/17 13:56:05;;;;;;;8.32;3.25;;;;;;;;;;5032401;28;20049;-70
2023/08/17 13:58:31;;;;;;;10.88;2.70;;;;;;;;;;5015149;28;20122;-69
2023/08/17 14:00:57;;;;;;;7.78;2.20;;;;;;;;;;5032677;28;20491;-69
2023/08/17 14:03:23;;;;;;;4.80;2.60;;;;;;;;;;5031864;28;20041;-69
2023/08/17 14:05:48;;;;;;;11.80;2.63;;;;;;;;;;5032155;28;20060;-69
2023/08/17 14:08:14;;;;;;;7.20;2.75;;;;;;;;;;5015333;28;20064;-69
2023/08/17 14:10:40;;;;;;;10.23;3.08;;;;;;;;;;5032838;28;20084;-68
2023/08/17 14:13:06;;;;;;;5.55;2.38;;;;;;;;;;5032166;28;20043;-70
2023/08/17 14:15:32;;;;;;;7.75;2.70;;;;;;;;;;5032365;28;20056;-69
2023/08/17 14:17:57;;;;;;;7.60;2.85;;;;;;;;;;5015628;28;20116;-69
2023/08/17 14:20:23;;;;;;;10.27;3.05;;;;;;;;;;5032683;28;20064;-69
2023/08/17 14:22:48;;;;;;;9.95;3.67;;;;;;;;;;5032919;28;20052;-69
2023/08/17 14:25:15;;;;;;;7.90;3.10;;;;;;;;;;5032883;28;20464;-69
2023/08/17 14:27:41;;;;;;;5.38;2.80;;;;;;;;;;5032549;28;20029;-69
2023/08/17 14:30:07;;;;;;;7.70;3.13;;;;;;;;;;5032675;28;20128;-69
2023/08/17 14:32:33;;;;;;;6.35;2.75;;;;;;;;;;4982599;28;20142;-69
2023/08/17 14:34:58;;;;;;;14.38;3.97;;;;;;;;;;5032620;28;20136;-69
2023/08/17 14:37:24;;;;;;;10.90;3.47;;;;;;;;;;5032557;28;20048;-69
2023/08/17 14:39:50;;;;;;;14.07;3.15;;;;;;;;;;5015177;28;20044;-69
2023/08/17 14:42:15;;;;;;;5.40;2.50;;;;;;;;;;5031311;28;20064;-69
2023/08/17 14:44:41;;;;;;;6.47;2.40;;;;;;;;;;5031339;28;20045;-69
2023/08/17 14:47:06;;;;;;;8.50;3.30;;;;;;;;;;5032514;28;20077;-69
2023/08/17 14:49:32;;;;;;;19.75;3.55;;;;;;;;;;5032739;28;20038;-70
2023/08/17 14:51:58;;;;;;;7.45;2.80;;;;;;;;;;5031445;28;20041;-69
2023/08/17 14:54:25;;;;;;;12.15;3.45;;;;;;;;;;5014989;28;20742;-69
2023/08/17 14:56:51;;;;;;;7.55;2.60;;;;;;;;;;5032140;28;20073;-69
2023/08/17 14:59:17;;;;;;;8.65;2.50;;;;;;;;;;5031450;28;20037;-69
2023/08/17 15:01:42;;;;;;;10.13;3.20;;;;;;;;;;5032236;28;20047;-68
2023/08/17 15:04:08;;;;;;;5.70;2.60;;;;;;;;;;5031084;28;20041;-69
2023/08/17 15:06:34;;;;;;;9.38;3.05;;;;;;;;;;5031129;28;20038;-69
2023/08/17 15:09:02;;;;;;;10.50;2.90;;;;;;;;;;5014722;28;20044;-69